createdAt,value
2018-09-20T00:00:19.163Z,24.30
2018-09-20T00:02:48.789Z,24.30
2018-09-20T00:05:21.262Z,24.30
2018-09-20T00:07:53.099Z,24.30
2018-09-20T00:10:22.807Z,24.30
2018-09-20T00:12:52.855Z,24.30
2018-09-20T00:15:22.335Z,24.30
2018-09-20T00:17:52.432Z,24.20
2018-09-20T00:20:22.477Z,24.20
2018-09-20T00:22:51.913Z,24.10
2018-09-20T00:25:21.387Z,24.10
2018-09-20T00:27:50.755Z,24.10
2018-09-20T00:30:20.907Z,24.10
2018-09-20T00:32:52.710Z,24.10
2018-09-20T00:35:22.458Z,24.10
2018-09-20T00:37:52.698Z,24.00
2018-09-20T00:40:22.157Z,24.00
2018-09-20T00:42:51.712Z,24.00
2018-09-20T00:45:21.456Z,24.00
2018-09-20T00:47:52.541Z,24.00
2018-09-20T00:50:22.273Z,24.00
2018-09-20T00:52:51.903Z,24.00
2018-09-20T00:55:21.424Z,24.00
2018-09-20T00:57:53.866Z,24.00
2018-09-20T01:00:24.517Z,23.90
2018-09-20T01:02:54.332Z,23.90
2018-09-20T01:05:23.686Z,23.90
2018-09-20T01:07:53.195Z,23.90
2018-09-20T01:10:23.772Z,23.80
2018-09-20T01:12:53.664Z,23.80
2018-09-20T01:15:23.680Z,23.80
2018-09-20T01:17:54.344Z,23.70
2018-09-20T01:20:23.741Z,23.70
2018-09-20T01:22:53.279Z,23.70
2018-09-20T01:25:23.798Z,23.70
2018-09-20T01:27:53.281Z,23.70
2018-09-20T01:30:23.715Z,23.70
2018-09-20T01:32:54.430Z,23.70
2018-09-20T01:35:23.975Z,23.70
2018-09-20T01:37:53.550Z,23.70
2018-09-20T01:40:23.652Z,23.70
2018-09-20T01:42:53.094Z,23.60
2018-09-20T01:45:22.550Z,23.60
2018-09-20T01:47:52.137Z,23.60
2018-09-20T01:50:21.701Z,23.60
2018-09-20T01:52:51.215Z,23.50
2018-09-20T01:55:20.616Z,23.50
2018-09-20T01:57:50.574Z,23.50
2018-09-20T02:00:20.151Z,23.50
2018-09-20T02:02:49.597Z,23.50
2018-09-20T02:05:19.139Z,23.50
2018-09-20T02:07:48.575Z,23.50
2018-09-20T02:10:21.555Z,23.50
2018-09-20T02:12:52.061Z,23.50
2018-09-20T02:15:21.525Z,23.40
2018-09-20T02:17:51.151Z,23.50
2018-09-20T02:20:20.731Z,23.40
2018-09-20T02:22:50.870Z,23.50
2018-09-20T02:25:20.284Z,23.50
2018-09-20T02:27:49.779Z,23.40
2018-09-20T02:30:21.641Z,23.40
2018-09-20T02:32:50.954Z,23.40
2018-09-20T02:35:20.381Z,23.30
2018-09-20T02:37:50.308Z,23.30
2018-09-20T02:40:20.698Z,23.30
2018-09-20T02:42:50.306Z,23.30
2018-09-20T02:45:19.691Z,23.30
2018-09-20T02:47:49.318Z,23.30
2018-09-20T02:50:19.650Z,23.30
2018-09-20T02:52:49.026Z,23.30
2018-09-20T02:55:18.659Z,23.30
2018-09-20T02:57:48.076Z,23.30
2018-09-20T03:00:18.381Z,23.30
2018-09-20T03:02:47.683Z,23.20
2018-09-20T03:05:16.848Z,23.20
2018-09-20T03:07:46.242Z,23.20
2018-09-20T03:10:15.713Z,23.20
2018-09-20T03:12:45.277Z,23.20
2018-09-20T03:15:15.672Z,23.20
2018-09-20T03:17:45.081Z,23.10
2018-09-20T03:20:16.020Z,23.10
2018-09-20T03:22:45.404Z,23.10
2018-09-20T03:25:15.107Z,23.10
2018-09-20T03:27:45.631Z,23.00
2018-09-20T03:30:16.462Z,23.00
2018-09-20T03:32:46.976Z,23.00
2018-09-20T03:35:16.302Z,23.00
2018-09-20T03:37:45.964Z,22.90
2018-09-20T03:40:18.335Z,22.90
2018-09-20T03:42:48.485Z,22.90
2018-09-20T03:45:18.899Z,22.90
2018-09-20T03:47:50.833Z,22.90
2018-09-20T03:50:20.994Z,22.90
2018-09-20T03:52:51.354Z,22.80
2018-09-20T03:55:21.786Z,22.80
2018-09-20T03:57:51.210Z,22.80
2018-09-20T04:00:23.488Z,22.80
2018-09-20T04:02:53.031Z,22.80
2018-09-20T04:05:22.296Z,22.80
2018-09-20T04:07:52.277Z,22.80
2018-09-20T04:10:22.205Z,22.80
2018-09-20T04:12:51.832Z,22.90
2018-09-20T04:15:21.253Z,22.90
2018-09-20T04:17:50.642Z,22.90
2018-09-20T04:20:20.110Z,22.90
2018-09-20T04:22:50.143Z,22.80
2018-09-20T04:25:19.635Z,22.80
2018-09-20T04:27:49.228Z,22.80
2018-09-20T04:30:19.183Z,22.80
2018-09-20T04:32:48.432Z,22.80
2018-09-20T04:35:17.883Z,22.80
2018-09-20T04:37:50.266Z,22.70
2018-09-20T04:40:20.148Z,22.70
2018-09-20T04:42:49.675Z,22.70
2018-09-20T04:45:19.080Z,22.80
2018-09-20T04:47:48.483Z,22.70
2018-09-20T04:50:44.949Z,22.70
2018-09-20T04:53:32.501Z,22.70
2018-09-20T04:56:07.421Z,22.70
2018-09-20T04:58:37.173Z,22.70
2018-09-20T05:01:06.603Z,22.60
2018-09-20T05:03:35.894Z,22.60
2018-09-20T05:06:05.549Z,22.60
2018-09-20T05:08:35.064Z,22.60
2018-09-20T05:11:04.605Z,22.50
2018-09-20T05:13:34.107Z,22.50
2018-09-20T05:16:04.445Z,22.50
2018-09-20T05:18:34.068Z,22.50
2018-09-20T05:24:06.276Z,22.50
2018-09-20T05:26:35.727Z,22.40
2018-09-20T05:29:05.914Z,22.40
2018-09-20T05:31:35.433Z,22.40
2018-09-20T05:34:05.042Z,22.50
2018-09-20T05:36:35.453Z,22.50
2018-09-20T05:39:07.857Z,22.50
2018-09-20T05:41:39.804Z,22.50
2018-09-20T05:44:15.217Z,22.50
2018-09-20T05:46:47.895Z,22.50
2018-09-20T05:49:18.327Z,22.50
2018-09-20T05:51:48.838Z,22.50
2018-09-20T05:54:20.486Z,22.50
2018-09-20T05:56:55.310Z,22.50
2018-09-20T05:59:25.450Z,22.50
2018-09-20T06:01:57.356Z,22.50
2018-09-20T06:04:37.249Z,22.50
2018-09-20T06:07:07.485Z,22.50
2018-09-20T06:09:37.611Z,22.50
2018-09-20T06:12:44.327Z,22.50
2018-09-20T06:15:14.434Z,22.50
2018-09-20T06:17:45.018Z,22.50
2018-09-20T06:20:14.598Z,22.50
2018-09-20T06:22:44.684Z,22.50
2018-09-20T06:25:14.377Z,22.50
2018-09-20T06:27:45.733Z,22.50
2018-09-20T06:30:23.752Z,22.50
2018-09-20T06:33:02.197Z,22.50
2018-09-20T06:35:33.855Z,22.60
2018-09-20T06:38:03.666Z,22.60
2018-09-20T06:40:33.170Z,22.60
2018-09-20T06:43:03.901Z,22.60
2018-09-20T06:45:34.176Z,22.60
2018-09-20T06:48:04.892Z,22.60
2018-09-20T06:50:34.375Z,22.60
2018-09-20T06:53:06.893Z,22.60
2018-09-20T06:55:54.067Z,22.50
2018-09-20T06:58:34.372Z,22.50
2018-09-20T07:01:04.370Z,22.50
2018-09-20T07:03:33.952Z,22.50
2018-09-20T07:06:11.120Z,22.50
2018-09-20T07:08:40.628Z,22.50
2018-09-20T07:11:09.968Z,22.60
2018-09-20T07:13:39.456Z,22.60
2018-09-20T07:16:10.115Z,22.60
2018-09-20T07:18:39.828Z,22.70
2018-09-20T07:21:09.509Z,22.70
2018-09-20T07:23:39.775Z,22.80
2018-09-20T07:26:10.379Z,22.80
2018-09-20T07:28:40.880Z,22.90
2018-09-20T07:31:12.372Z,22.90
2018-09-20T07:33:41.879Z,22.90
2018-09-20T07:36:18.537Z,22.90
2018-09-20T07:38:48.288Z,23.00
2018-09-20T07:41:17.766Z,23.00
2018-09-20T07:43:47.107Z,23.10
2018-09-20T07:46:16.687Z,23.10
2018-09-20T07:48:46.210Z,23.10
2018-09-20T07:51:15.735Z,23.20
2018-09-20T07:53:45.606Z,23.20
2018-09-20T07:56:15.773Z,23.20
2018-09-20T07:58:45.077Z,23.20
2018-09-20T08:01:15.331Z,23.30
2018-09-20T08:03:45.408Z,23.30
2018-09-20T08:06:14.759Z,23.30
2018-09-20T08:08:45.509Z,23.30
2018-09-20T08:11:14.963Z,23.30
2018-09-20T08:13:44.469Z,23.40
2018-09-20T08:16:13.820Z,23.40
2018-09-20T08:18:43.405Z,23.40
2018-09-20T08:21:19.683Z,23.50
2018-09-20T08:23:49.781Z,23.50
2018-09-20T08:26:26.125Z,23.50
2018-09-20T08:28:56.728Z,23.50
2018-09-20T08:31:27.866Z,23.50
2018-09-20T08:33:57.563Z,23.50
2018-09-20T08:36:28.959Z,23.60
2018-09-20T08:39:02.930Z,23.60
2018-09-20T08:44:31.043Z,23.70
2018-09-20T08:47:00.649Z,23.80
2018-09-20T08:49:36.041Z,23.80
2018-09-20T08:52:05.480Z,23.80
2018-09-20T08:54:37.184Z,23.90
2018-09-20T08:57:07.674Z,23.90
2018-09-20T08:59:37.147Z,23.90
2018-09-20T09:02:06.679Z,24.00
2018-09-20T09:04:36.723Z,24.00
2018-09-20T09:07:07.490Z,24.10
2018-09-20T09:09:36.788Z,24.20
2018-09-20T09:12:14.066Z,24.30
2018-09-20T09:14:44.667Z,24.30
2018-09-20T09:17:14.238Z,24.30
2018-09-20T09:19:44.837Z,24.40
2018-09-20T09:22:15.429Z,24.40
2018-09-20T09:24:45.370Z,24.50
2018-09-20T09:27:15.538Z,24.60
2018-09-20T09:29:46.338Z,24.60
2018-09-20T09:32:22.379Z,24.70
2018-09-20T09:34:51.996Z,24.70
2018-09-20T09:37:21.444Z,24.70
2018-09-20T09:39:51.386Z,24.70
2018-09-20T09:42:20.849Z,24.70
2018-09-20T09:44:50.314Z,24.80
2018-09-20T09:47:20.173Z,24.80
2018-09-20T09:49:49.553Z,24.90
2018-09-20T09:52:19.085Z,24.90
2018-09-20T09:54:48.647Z,24.90
2018-09-20T09:57:18.554Z,24.90
2018-09-20T09:59:48.828Z,25.00
2018-09-20T10:02:18.248Z,25.00
2018-09-20T10:04:48.607Z,25.00
2018-09-20T10:07:18.112Z,24.90
2018-09-20T10:09:48.594Z,25.00
2018-09-20T10:12:19.132Z,25.00
2018-09-20T10:14:49.239Z,25.00
2018-09-20T10:17:18.819Z,25.10
2018-09-20T10:19:48.274Z,25.10
2018-09-20T10:22:17.882Z,25.10
2018-09-20T10:24:47.812Z,25.20
2018-09-20T10:27:18.276Z,25.20
2018-09-20T10:29:51.807Z,25.20
2018-09-20T10:32:22.685Z,25.20
2018-09-20T10:34:52.545Z,25.20
2018-09-20T10:37:23.650Z,25.20
2018-09-20T10:39:55.649Z,25.20
2018-09-20T10:42:59.465Z,25.30
2018-09-20T10:45:30.891Z,25.30
2018-09-20T10:48:00.992Z,25.30
2018-09-20T10:50:31.194Z,25.30
2018-09-20T10:53:02.226Z,25.40
2018-09-20T10:55:33.471Z,25.50
2018-09-20T10:58:08.804Z,25.60
2018-09-20T11:00:38.413Z,25.70
2018-09-20T11:03:08.496Z,25.70
2018-09-20T11:05:37.888Z,25.80
2018-09-20T11:08:07.564Z,25.80
2018-09-20T11:10:38.078Z,25.80
2018-09-20T11:13:11.092Z,25.90
2018-09-20T11:15:41.862Z,25.80
2018-09-20T11:18:11.393Z,25.80
2018-09-20T11:20:43.266Z,25.80
2018-09-20T11:23:12.929Z,25.80
2018-09-20T11:25:43.137Z,25.80
2018-09-20T11:28:12.847Z,25.80
2018-09-20T11:30:43.205Z,25.90
2018-09-20T11:33:12.608Z,25.90
2018-09-20T11:35:41.675Z,25.90
2018-09-20T11:38:33.637Z,26.00
2018-09-20T11:41:04.203Z,26.00
2018-09-20T11:43:34.978Z,26.10
2018-09-20T11:46:04.677Z,26.20
2018-09-20T11:48:34.342Z,26.20
2018-09-20T11:51:04.790Z,26.30
2018-09-20T11:53:34.564Z,26.60
2018-09-20T11:56:03.971Z,26.90
2018-09-20T11:58:33.398Z,27.10
2018-09-20T12:01:02.907Z,27.20
2018-09-20T12:03:33.514Z,27.40
2018-09-20T12:06:03.179Z,27.20
2018-09-20T12:08:33.451Z,27.40
2018-09-20T12:11:04.079Z,27.50
2018-09-20T12:13:35.468Z,27.50
2018-09-20T12:16:05.082Z,27.50
2018-09-20T12:18:35.056Z,27.70
2018-09-20T12:21:05.159Z,27.60
2018-09-20T12:23:39.903Z,27.50
2018-09-20T12:26:09.722Z,27.30
2018-09-20T12:28:39.492Z,27.20
2018-09-20T12:31:09.213Z,27.20
2018-09-20T12:33:38.614Z,27.30
2018-09-20T12:36:09.274Z,27.40
2018-09-20T12:38:39.334Z,27.60
2018-09-20T12:41:09.059Z,27.70
2018-09-20T12:43:38.619Z,27.80
2018-09-20T12:46:08.543Z,27.90
2018-09-20T12:48:39.104Z,27.90
2018-09-20T12:51:12.531Z,27.90
2018-09-20T12:53:44.812Z,27.90
2018-09-20T12:56:15.120Z,27.90
2018-09-20T12:59:00.167Z,27.90
2018-09-20T13:01:29.852Z,27.80
2018-09-20T13:04:05.547Z,27.90
2018-09-20T13:06:40.388Z,28.00
2018-09-20T13:09:11.147Z,28.10
2018-09-20T13:11:41.219Z,28.30
2018-09-20T13:14:10.794Z,28.30
2018-09-20T13:16:40.548Z,28.30
2018-09-20T13:19:09.985Z,28.30
2018-09-20T13:21:40.027Z,28.30
2018-09-20T13:24:10.108Z,28.20
2018-09-20T13:26:39.904Z,28.30
2018-09-20T13:29:09.385Z,28.30
2018-09-20T13:31:38.806Z,28.30
2018-09-20T13:34:08.437Z,28.30
2018-09-20T13:36:37.921Z,28.30
2018-09-20T13:39:11.675Z,28.30
2018-09-20T13:41:41.927Z,28.40
2018-09-20T13:44:23.462Z,28.50
2018-09-20T13:46:57.172Z,28.70
2018-09-20T13:49:26.938Z,28.80
2018-09-20T13:51:57.817Z,28.90
2018-09-20T13:54:27.306Z,28.80
2018-09-20T13:56:57.718Z,28.60
2018-09-20T13:59:27.146Z,28.70
2018-09-20T14:01:57.912Z,28.90
2018-09-20T14:04:28.097Z,29.10
2018-09-20T14:07:00.327Z,29.30
2018-09-20T14:09:30.412Z,29.50
2018-09-20T14:12:00.310Z,29.60
2018-09-20T14:14:30.340Z,29.70
2018-09-20T14:17:01.030Z,29.80
2018-09-20T14:19:31.333Z,29.80
2018-09-20T14:22:03.622Z,29.80
2018-09-20T14:24:33.476Z,29.90
2018-09-20T14:27:04.171Z,29.90
2018-09-20T14:29:33.647Z,29.90
2018-09-20T14:32:03.969Z,30.00
2018-09-20T14:34:33.899Z,30.10
2018-09-20T14:37:03.354Z,30.20
2018-09-20T14:39:33.037Z,30.20
2018-09-20T14:42:02.370Z,30.10
2018-09-20T14:44:32.244Z,30.00
2018-09-20T14:47:01.816Z,29.90
2018-09-20T14:49:32.999Z,29.90
2018-09-20T14:52:02.370Z,30.10
2018-09-20T14:54:31.907Z,30.00
2018-09-20T14:57:02.277Z,29.90
2018-09-20T14:59:32.262Z,29.90
2018-09-20T15:02:05.014Z,29.90
2018-09-20T15:04:34.718Z,29.90
2018-09-20T15:07:05.596Z,29.90
2018-09-20T15:09:35.307Z,29.70
2018-09-20T15:12:04.904Z,29.50
2018-09-20T15:14:35.083Z,29.20
2018-09-20T15:17:05.007Z,29.10
2018-09-20T15:19:35.000Z,29.00
2018-09-20T15:22:05.721Z,28.80
2018-09-20T15:24:36.017Z,28.80
2018-09-20T15:27:06.282Z,28.70
2018-09-20T15:29:52.158Z,28.70
2018-09-20T15:32:37.613Z,28.80
2018-09-20T15:35:12.293Z,29.00
2018-09-20T15:37:42.614Z,29.20
2018-09-20T15:40:17.175Z,29.40
2018-09-20T15:42:47.889Z,29.50
2018-09-20T15:48:06.421Z,30.30
2018-09-20T15:50:41.174Z,30.70
2018-09-20T15:53:12.671Z,31.00
2018-09-20T15:55:55.328Z,30.90
2018-09-20T15:59:00.380Z,30.60
2018-09-20T16:01:36.124Z,30.30
2018-09-20T16:04:10.036Z,30.10
2018-09-20T16:06:41.478Z,29.90
2018-09-20T16:09:12.827Z,29.60
2018-09-20T16:11:43.546Z,29.30
2018-09-20T16:14:14.850Z,29.10
2018-09-20T16:16:45.682Z,28.90
2018-09-20T16:19:15.454Z,28.80
2018-09-20T16:24:23.317Z,28.50
2018-09-20T16:26:53.436Z,28.40
2018-09-20T16:29:40.269Z,28.30
2018-09-20T16:32:44.055Z,28.20
2018-09-20T16:38:25.716Z,28.00
2018-09-20T16:40:59.134Z,28.00
2018-09-20T16:43:32.215Z,27.90
2018-09-20T16:46:05.175Z,27.90
2018-09-20T16:48:35.836Z,27.90
2018-09-20T16:51:06.838Z,27.90
2018-09-20T16:53:38.400Z,27.90
2018-09-20T16:56:09.099Z,27.90
2018-09-20T16:58:45.161Z,28.00
2018-09-20T17:01:15.945Z,28.00
2018-09-20T17:03:46.993Z,28.00
2018-09-20T17:06:19.010Z,28.00
2018-09-20T17:08:50.871Z,28.10
2018-09-20T17:11:22.115Z,28.00
2018-09-20T17:13:53.194Z,28.00
2018-09-20T17:16:23.926Z,27.90
2018-09-20T17:18:57.035Z,27.80
2018-09-20T17:21:29.857Z,27.80
2018-09-20T17:26:42.245Z,27.70
2018-09-20T17:29:13.340Z,27.70
2018-09-20T17:31:49.728Z,27.60
2018-09-20T17:34:22.011Z,27.50
2018-09-20T17:36:55.174Z,27.50
2018-09-20T17:39:31.661Z,27.40
2018-09-20T17:42:04.222Z,27.40
2018-09-20T17:44:36.710Z,27.40
2018-09-20T17:47:11.767Z,27.40
2018-09-20T17:49:43.943Z,27.30
2018-09-20T17:52:15.736Z,27.30
2018-09-20T17:54:47.911Z,27.30
2018-09-20T17:57:20.280Z,27.20
2018-09-20T17:59:51.243Z,27.20
2018-09-20T18:02:22.637Z,27.20
2018-09-20T18:04:54.270Z,27.20
2018-09-20T18:07:33.596Z,27.20
2018-09-20T18:10:05.422Z,27.20
2018-09-20T18:12:42.950Z,27.20
2018-09-20T18:15:14.621Z,27.20
2018-09-20T18:17:48.657Z,27.10
2018-09-20T18:20:24.737Z,27.10
2018-09-20T18:28:38.181Z,27.10
2018-09-20T18:31:09.392Z,27.00
2018-09-20T18:33:41.516Z,27.00
2018-09-20T18:36:13.307Z,27.00
2018-09-20T18:38:45.693Z,27.00
2018-09-20T18:41:17.941Z,27.00
2018-09-20T18:43:49.774Z,27.00
2018-09-20T18:46:21.467Z,27.00
2018-09-20T18:48:52.819Z,27.00
2018-09-20T18:51:24.653Z,26.90
2018-09-20T18:53:58.476Z,26.90
2018-09-20T18:56:32.601Z,26.90
2018-09-20T18:59:08.894Z,26.80
2018-09-20T19:01:40.913Z,26.90
2018-09-20T19:04:13.163Z,26.80
2018-09-20T19:06:44.659Z,26.80
2018-09-20T19:09:16.013Z,26.80
2018-09-20T19:11:48.874Z,26.80
2018-09-20T19:14:20.325Z,26.80
2018-09-20T19:16:51.748Z,26.80
2018-09-20T19:19:24.789Z,26.80
2018-09-20T19:21:56.945Z,26.80
2018-09-20T19:24:35.910Z,26.80
2018-09-20T19:27:08.262Z,26.70
2018-09-20T19:29:40.568Z,26.70
2018-09-20T19:32:12.988Z,26.70
2018-09-20T19:34:44.623Z,26.70
2018-09-20T19:37:16.126Z,26.70
2018-09-20T19:39:49.063Z,26.70
2018-09-20T19:42:20.780Z,26.70
2018-09-20T19:44:52.667Z,26.70
2018-09-20T19:47:26.136Z,26.70
2018-09-20T19:49:57.257Z,26.70
2018-09-20T19:52:28.500Z,26.70
2018-09-20T19:55:00.898Z,26.70
2018-09-20T19:57:32.644Z,26.70
2018-09-20T20:00:03.673Z,26.70
2018-09-20T20:02:36.402Z,26.70
2018-09-20T20:05:07.193Z,26.70
2018-09-20T20:07:38.190Z,26.70
2018-09-20T20:10:09.598Z,26.70
2018-09-20T20:12:44.159Z,26.60
2018-09-20T20:15:19.598Z,26.60
2018-09-20T20:17:50.115Z,26.60
2018-09-20T20:20:20.584Z,26.50
2018-09-20T20:22:51.539Z,26.50
2018-09-20T20:25:22.696Z,26.50
2018-09-20T20:27:53.792Z,26.50
2018-09-20T20:30:24.291Z,26.50
2018-09-20T20:32:54.936Z,26.40
2018-09-20T20:35:32.410Z,26.40
2018-09-20T20:38:02.549Z,26.40
2018-09-20T20:40:32.694Z,26.40
2018-09-20T20:43:02.734Z,26.30
2018-09-20T20:45:35.006Z,26.20
2018-09-20T20:48:06.158Z,26.20
2018-09-20T20:50:35.916Z,26.20
2018-09-20T20:53:06.319Z,26.20
2018-09-20T20:55:36.482Z,26.10
2018-09-20T20:58:06.901Z,26.00
2018-09-20T21:00:36.802Z,26.00
2018-09-20T21:03:06.667Z,26.00
2018-09-20T21:05:36.277Z,25.90
2018-09-20T21:08:06.624Z,26.00
2018-09-20T21:10:36.006Z,26.00
2018-09-20T21:13:05.495Z,26.00
2018-09-20T21:15:35.820Z,26.00
2018-09-20T21:18:07.149Z,25.90
2018-09-20T21:20:37.382Z,25.90
2018-09-20T21:23:06.963Z,25.90
2018-09-20T21:25:36.476Z,25.90
2018-09-20T21:28:07.226Z,25.90
2018-09-20T21:30:36.885Z,25.90
2018-09-20T21:33:06.891Z,25.90
2018-09-20T21:35:38.294Z,25.80
2018-09-20T21:38:08.599Z,25.80
2018-09-20T21:40:40.122Z,25.80
2018-09-20T21:43:10.421Z,25.70
2018-09-20T21:45:39.875Z,25.70
2018-09-20T21:48:09.339Z,25.70
2018-09-20T21:50:38.660Z,25.70
2018-09-20T21:53:08.797Z,25.60
2018-09-20T21:55:38.414Z,25.60
2018-09-20T21:58:10.310Z,25.60
2018-09-20T22:00:40.981Z,25.60
2018-09-20T22:03:11.128Z,25.50
2018-09-20T22:05:40.954Z,25.50
2018-09-20T22:08:10.237Z,25.50
2018-09-20T22:10:39.794Z,25.50
2018-09-20T22:13:10.296Z,25.40
2018-09-20T22:15:41.014Z,25.40
2018-09-20T22:18:10.432Z,25.40
2018-09-20T22:20:40.559Z,25.40
2018-09-20T22:23:10.648Z,25.30
2018-09-20T22:25:40.467Z,25.30
2018-09-20T22:28:10.516Z,25.20
2018-09-20T22:30:40.513Z,25.20
2018-09-20T22:33:10.544Z,25.20
2018-09-20T22:35:40.946Z,25.20
2018-09-20T22:38:10.408Z,25.20
2018-09-20T22:40:41.096Z,25.10
2018-09-20T22:43:11.302Z,25.10
2018-09-20T22:45:40.753Z,25.10
2018-09-20T22:48:11.002Z,25.00
2018-09-20T22:50:40.354Z,25.00
2018-09-20T22:53:10.312Z,25.00
2018-09-20T22:55:39.843Z,24.90
2018-09-20T22:58:09.228Z,24.90
2018-09-20T23:00:47.304Z,24.90
2018-09-20T23:03:16.761Z,24.80
2018-09-20T23:05:46.272Z,24.80
2018-09-20T23:08:17.027Z,24.80
2018-09-20T23:10:46.710Z,24.80
2018-09-20T23:13:16.322Z,24.80
2018-09-20T23:15:45.915Z,24.80
2018-09-20T23:18:15.428Z,24.80
2018-09-20T23:20:45.014Z,24.80
2018-09-20T23:23:15.685Z,24.80
2018-09-20T23:25:45.175Z,24.80
2018-09-20T23:28:24.725Z,24.70
2018-09-20T23:30:54.514Z,24.80
2018-09-20T23:33:24.192Z,24.70
2018-09-20T23:35:55.385Z,24.70
2018-09-20T23:38:30.894Z,24.70
2018-09-20T23:41:00.774Z,24.70
2018-09-20T23:43:39.797Z,24.70
2018-09-20T23:46:09.203Z,24.70
2018-09-20T23:48:38.885Z,24.60
2018-09-20T23:51:08.327Z,24.60
2018-09-20T23:53:37.869Z,24.60
2018-09-20T23:56:08.719Z,24.60
2018-09-20T23:58:38.243Z,24.50
